createdAt,value
2023-03-19T00:02:17.484Z,19.67
2023-03-19T00:07:22.337Z,15.40
2023-03-19T00:12:24.148Z,14.45
2023-03-19T00:17:26.056Z,21.45
2023-03-19T00:22:28.079Z,16.52
2023-03-19T00:27:29.948Z,18.58
2023-03-19T00:32:33.688Z,16.17
2023-03-19T00:37:36.495Z,20.35
2023-03-19T00:42:38.492Z,15.10
2023-03-19T00:47:40.710Z,12.63
2023-03-19T00:52:42.806Z,15.15
2023-03-19T00:59:05.666Z,14.43
2023-03-19T01:04:07.875Z,13.27
2023-03-19T01:09:10.450Z,14.15
2023-03-19T01:14:12.872Z,14.90
2023-03-19T01:19:15.968Z,17.05
2023-03-19T01:24:18.120Z,16.02
2023-03-19T01:29:23.394Z,18.25
2023-03-19T01:34:28.488Z,19.73
2023-03-19T01:39:37.170Z,14.40
2023-03-19T01:44:45.129Z,14.15
2023-03-19T01:50:28.828Z,14.98
2023-03-19T01:56:03.595Z,19.13
2023-03-19T02:01:29.755Z,15.23
2023-03-19T02:06:33.193Z,14.48
2023-03-19T02:11:36.848Z,16.50
2023-03-19T02:16:39.728Z,15.43
2023-03-19T02:21:41.836Z,13.07
2023-03-19T02:26:45.546Z,16.10
2023-03-19T02:31:47.886Z,19.35
2023-03-19T02:37:03.816Z,16.23
2023-03-19T02:42:06.374Z,15.45
2023-03-19T02:47:10.399Z,13.68
2023-03-19T02:52:12.714Z,18.05
2023-03-19T02:57:15.896Z,16.45
2023-03-19T03:02:18.209Z,20.63
2023-03-19T03:07:23.220Z,13.25
2023-03-19T03:12:25.378Z,13.93
2023-03-19T03:17:27.405Z,16.98
2023-03-19T03:22:29.275Z,14.55
2023-03-19T03:27:31.540Z,18.20
2023-03-19T03:32:33.614Z,17.92
2023-03-19T03:37:37.417Z,22.48
2023-03-19T03:42:39.310Z,13.82
2023-03-19T03:47:43.793Z,15.23
2023-03-19T03:52:46.229Z,17.42
2023-03-19T03:57:48.112Z,12.80
2023-03-19T04:02:51.084Z,14.20
2023-03-19T04:07:53.326Z,15.05
2023-03-19T04:12:56.268Z,15.73
2023-03-19T04:17:58.475Z,12.55
2023-03-19T04:23:00.571Z,11.60
2023-03-19T04:28:03.944Z,14.27
2023-03-19T04:33:07.498Z,14.55
2023-03-19T04:38:09.525Z,15.90
2023-03-19T04:43:12.602Z,14.43
2023-03-19T04:48:17.384Z,18.67
2023-03-19T04:53:23.507Z,17.50
2023-03-19T04:58:25.732Z,17.63
2023-03-19T05:03:34.158Z,18.35
2023-03-19T05:08:36.813Z,12.63
2023-03-19T05:13:38.969Z,19.05
2023-03-19T05:18:41.430Z,17.52
2023-03-19T05:23:44.138Z,14.70
2023-03-19T05:28:46.359Z,15.23
2023-03-19T05:33:51.346Z,12.88
2023-03-19T05:38:54.047Z,15.15
2023-03-19T05:44:04.329Z,14.93
2023-03-19T05:49:26.661Z,15.15
2023-03-19T06:05:30.136Z,14.60
2023-03-19T06:10:38.512Z,15.98
2023-03-19T06:15:45.768Z,15.68
2023-03-19T06:20:58.548Z,17.30
2023-03-19T06:26:01.038Z,18.08
2023-03-19T06:31:08.948Z,14.48
2023-03-19T06:36:34.691Z,19.75
2023-03-19T06:41:38.939Z,16.80
2023-03-19T06:46:49.081Z,16.02
2023-03-19T06:51:51.673Z,24.23
2023-03-19T06:56:56.626Z,18.58
2023-03-19T07:01:58.441Z,17.15
2023-03-19T07:07:02.783Z,23.50
2023-03-19T07:12:04.914Z,16.67
2023-03-19T07:17:09.149Z,17.10
2023-03-19T07:22:12.333Z,17.35
2023-03-19T07:27:14.398Z,15.88
2023-03-19T07:32:16.399Z,20.85
2023-03-19T07:37:19.672Z,12.90
2023-03-19T07:42:23.197Z,16.88
2023-03-19T07:47:29.301Z,20.20
2023-03-19T07:52:31.629Z,20.83
2023-03-19T07:57:33.454Z,16.15
2023-03-19T08:02:35.233Z,15.02
2023-03-19T08:07:40.529Z,24.05
2023-03-19T08:12:42.833Z,17.83
2023-03-19T08:17:44.886Z,18.45
2023-03-19T08:22:52.528Z,16.50
2023-03-19T08:27:54.491Z,15.25
2023-03-19T08:32:56.936Z,15.98
2023-03-19T08:37:59.082Z,14.52
2023-03-19T08:43:01.588Z,14.02
2023-03-19T08:48:04.223Z,13.73
2023-03-19T08:58:45.872Z,13.23
2023-03-19T09:03:47.922Z,16.65
2023-03-19T09:08:49.964Z,14.02
2023-03-19T09:13:51.978Z,14.88
2023-03-19T09:18:53.823Z,17.42
2023-03-19T09:23:55.754Z,19.08
2023-03-19T09:28:57.887Z,17.52
2023-03-19T09:34:02.270Z,16.58
2023-03-19T09:45:21.352Z,15.13
2023-03-19T09:50:26.405Z,10.02
2023-03-19T09:55:49.960Z,13.45
2023-03-19T10:00:55.803Z,16.05
2023-03-19T10:06:12.711Z,15.95
2023-03-19T10:11:40.233Z,12.25
2023-03-19T10:16:46.947Z,14.57
2023-03-19T10:21:57.818Z,14.13
2023-03-19T10:27:05.988Z,13.40
2023-03-19T10:32:21.444Z,9.38
2023-03-19T10:37:35.769Z,10.82
2023-03-19T10:43:13.704Z,17.48
2023-03-19T10:48:18.112Z,13.27
2023-03-19T10:53:36.667Z,12.13
2023-03-19T10:58:40.565Z,12.95
2023-03-19T11:03:48.585Z,16.85
2023-03-19T11:09:00.155Z,16.67
2023-03-19T11:14:39.249Z,12.70
2023-03-19T11:19:52.375Z,11.00
2023-03-19T11:24:58.035Z,13.63
2023-03-19T11:30:00.194Z,13.80
2023-03-19T11:35:10.772Z,12.82
2023-03-19T11:40:15.780Z,11.98
2023-03-19T11:46:19.593Z,11.52
2023-03-19T11:51:36.397Z,12.35
2023-03-19T11:56:47.261Z,15.43
2023-03-19T12:01:49.293Z,11.55
2023-03-19T12:07:10.354Z,12.93
2023-03-19T12:12:26.822Z,12.70
2023-03-19T12:18:06.089Z,12.40
2023-03-19T12:23:28.323Z,11.18
2023-03-19T12:28:35.943Z,14.05
2023-03-19T12:47:04.765Z,10.60
2023-03-19T12:52:45.300Z,13.35
2023-03-19T12:58:58.580Z,15.23
2023-03-19T13:30:13.624Z,9.73
2023-03-19T13:35:36.636Z,13.13
2023-03-19T13:40:41.863Z,14.30
2023-03-19T13:45:44.521Z,13.13
2023-03-19T13:51:00.863Z,14.32
2023-03-19T13:56:28.652Z,15.18
2023-03-19T14:01:31.582Z,16.77
2023-03-19T14:06:36.801Z,15.63
2023-03-19T14:11:38.901Z,13.43
2023-03-19T14:16:48.984Z,16.95
2023-03-19T14:22:00.129Z,13.32
2023-03-19T14:27:16.258Z,12.75
2023-03-19T14:32:23.331Z,13.73
2023-03-19T14:37:29.960Z,18.30
2023-03-19T14:42:40.181Z,16.00
2023-03-19T14:47:48.146Z,15.20
2023-03-19T14:53:14.822Z,9.25
2023-03-19T14:58:19.310Z,14.63
2023-03-19T15:03:33.815Z,12.43
2023-03-19T15:08:39.773Z,11.98
2023-03-19T15:13:59.977Z,15.27
2023-03-19T15:19:02.226Z,10.50
2023-03-19T15:24:04.908Z,13.02
2023-03-19T15:29:12.079Z,10.70
2023-03-19T15:34:19.698Z,5.30
2023-03-19T15:39:27.414Z,4.07
2023-03-19T15:44:39.486Z,6.95
2023-03-19T15:49:49.113Z,1.98
2023-03-19T15:54:54.813Z,3.95
2023-03-19T16:00:00.794Z,3.13
2023-03-19T16:05:20.845Z,9.75
2023-03-19T16:10:33.274Z,1.60
2023-03-19T16:15:47.660Z,2.05
2023-03-19T16:21:28.267Z,1.83
2023-03-19T16:26:41.096Z,3.40
2023-03-19T16:31:46.523Z,3.88
2023-03-19T16:36:50.478Z,2.35
2023-03-19T16:42:26.482Z,3.42
2023-03-19T16:47:28.293Z,1.90
2023-03-19T16:52:30.337Z,4.65
2023-03-19T16:57:32.821Z,3.42
2023-03-19T17:02:34.669Z,2.78
2023-03-19T17:07:36.506Z,3.88
2023-03-19T17:12:38.525Z,2.85
2023-03-19T17:17:40.617Z,3.28
2023-03-19T17:22:42.429Z,4.43
2023-03-19T17:27:45.691Z,4.20
2023-03-19T17:32:49.926Z,1.95
2023-03-19T17:37:52.675Z,1.02
2023-03-19T17:42:56.218Z,4.18
2023-03-19T17:47:58.727Z,2.22
2023-03-19T17:53:00.771Z,1.88
2023-03-19T17:58:02.598Z,3.60
2023-03-19T18:03:04.432Z,5.55
2023-03-19T18:08:06.530Z,2.60
2023-03-19T18:13:09.188Z,4.47
2023-03-19T18:18:18.083Z,3.67
2023-03-19T18:23:20.198Z,9.55
2023-03-19T18:28:22.195Z,4.85
2023-03-19T18:33:29.061Z,4.70
2023-03-19T18:38:31.016Z,3.75
2023-03-19T18:43:32.785Z,5.68
2023-03-19T18:48:35.808Z,12.93
2023-03-19T18:53:38.502Z,3.92
2023-03-19T18:58:41.100Z,6.05
2023-03-19T19:03:45.853Z,8.73
2023-03-19T19:08:48.015Z,4.72
2023-03-19T19:14:00.165Z,3.95
2023-03-19T19:19:16.494Z,9.20
2023-03-19T19:24:18.334Z,8.82
2023-03-19T19:29:29.627Z,8.45
2023-03-19T19:34:31.791Z,3.10
2023-03-19T19:39:33.775Z,2.75
2023-03-19T19:44:35.802Z,2.67
2023-03-19T19:49:37.901Z,4.20
2023-03-19T19:54:39.931Z,5.43
2023-03-19T19:59:41.946Z,4.45
2023-03-19T20:04:43.686Z,4.30
2023-03-19T20:09:45.842Z,4.30
2023-03-19T20:14:48.942Z,2.33
2023-03-19T20:19:51.379Z,3.55
2023-03-19T20:24:53.133Z,1.85
2023-03-19T20:29:54.920Z,4.00
2023-03-19T20:34:57.818Z,2.80
2023-03-19T20:40:00.136Z,5.18
2023-03-19T20:45:02.430Z,3.53
2023-03-19T20:50:04.692Z,5.30
2023-03-19T20:55:07.447Z,4.22
2023-03-19T21:00:29.739Z,3.00
2023-03-19T21:05:36.686Z,3.90
2023-03-19T21:10:42.190Z,3.80
2023-03-19T21:15:49.736Z,5.28
2023-03-19T21:20:55.029Z,7.53
2023-03-19T21:25:57.923Z,4.32
2023-03-19T21:31:00.212Z,4.97
2023-03-19T21:36:03.320Z,3.78
2023-03-19T21:41:10.580Z,2.95
2023-03-19T21:46:24.276Z,4.72
2023-03-19T21:51:29.783Z,5.88
2023-03-19T21:56:37.154Z,3.88
2023-03-19T22:01:39.000Z,5.38
2023-03-19T22:06:40.876Z,1.98
2023-03-19T22:11:43.204Z,2.42
2023-03-19T22:16:46.452Z,11.00
2023-03-19T22:21:49.609Z,6.70
2023-03-19T22:26:57.406Z,4.97
2023-03-19T22:31:59.341Z,3.35
2023-03-19T22:37:01.617Z,4.82
2023-03-19T22:42:03.536Z,2.47
2023-03-19T22:47:05.508Z,2.50
2023-03-19T22:52:10.625Z,1.75
2023-03-19T22:57:17.522Z,3.35
2023-03-19T23:02:19.259Z,3.35
2023-03-19T23:07:21.292Z,3.95
2023-03-19T23:12:23.093Z,2.83
2023-03-19T23:17:24.842Z,2.85
2023-03-19T23:22:27.684Z,4.28
2023-03-19T23:27:30.347Z,7.05
2023-03-19T23:32:32.716Z,7.57
2023-03-19T23:37:34.879Z,3.70
2023-03-19T23:42:44.450Z,2.92
2023-03-19T23:47:46.375Z,2.15
2023-03-19T23:52:48.868Z,2.92
2023-03-19T23:57:51.395Z,4.57
